»·PEaware :: N364CM KAVX-KSAN

N364CM :: KAVX-KSAN

FLIGHT INFORMATION

Flight Status: Arrived
Operator: Privately registered:
United States
More flights under this callsign
Pilot: Brian S. (32023)
Aircraft: BEECH AIRCRAFT SUPER KING AIR 350
(B350)
More flights by this aircraft type
Origin: KAVX Catalina
United States
Destination: KSAN San Diego Intl-Lindbergh
United States
More flights between these airports :: More routes between these airports
Route: +SXC V208 LAX118 CARDI MZB320 MZB
File this flight plan on PilotEdge
Remarks: TEC ROUTE CSTP54
Altitude:
(Current/Filed)
9,000ft
Speed:
(Current/Filed)
260kts
Departed: 11-Dec-20 08:21 PM
Arrived: 11-Dec-20 09:09 PM
Distance/Time
Traveled:
74nm/0:48
Distance/Time
To Go:
Arrived

Flight Plot

Page will automatically refresh every two minutes.


Map Options




Map Legend


Flown Route
Filed Route
Departure Airport
Arrival Airport
Navaid (VOR, NDB)
Fix

Horizontal Profiles

Position Reports

Time Latitude Longitude Heading Altitude Ground
Speed
11-Dec-20 20:09 33.403970 -118.415175 146 1547ft 0kts
11-Dec-20 20:10 33.403970 -118.415175 146 1547ft 0kts
11-Dec-20 20:11 33.403970 -118.415175 146 1547ft 0kts
11-Dec-20 20:12 33.403970 -118.415175 146 1547ft 0kts
11-Dec-20 20:13 33.403970 -118.415175 146 1547ft 0kts
11-Dec-20 20:14 33.403970 -118.415175 146 1547ft 0kts
11-Dec-20 20:15 33.403970 -118.415175 146 1547ft 0kts
11-Dec-20 20:16 33.403970 -118.415175 146 1547ft 0kts
11-Dec-20 20:17 33.403961 -118.416570 15 1555ft 8kts
11-Dec-20 20:18 33.406372 -118.412755 55 1516ft 22kts
11-Dec-20 20:18 33.407105 -118.411491 53 1501ft 0kts
11-Dec-20 20:20 33.407367 -118.411791 237 1503ft 0kts
11-Dec-20 20:20 33.400945 -118.421812 219 1640ft 111kts
11-Dec-20 20:22 33.373566 -118.464773 233 2348ft 177kts
11-Dec-20 20:22 33.349003 -118.504198 233 3398ft 179kts
11-Dec-20 20:24 33.313964 -118.560431 233 4760ft 182kts
11-Dec-20 20:24 33.288592 -118.601146 233 5655ft 182kts
11-Dec-20 20:26 33.252902 -118.658411 233 6472ft 185kts
11-Dec-20 20:26 33.227185 -118.699667 233 7039ft 186kts
11-Dec-20 20:27 33.187285 -118.713479 120 7603ft 187kts
11-Dec-20 20:28 33.213685 -118.670333 27 8165ft 187kts
11-Dec-20 20:29 33.257561 -118.637623 50 8734ft 188kts
11-Dec-20 20:30 33.288401 -118.582977 57 8862ft 214kts
11-Dec-20 20:31 33.322002 -118.519831 57 8848ft 234kts
11-Dec-20 20:32 33.357548 -118.452894 57 8845ft 242kts
11-Dec-20 20:33 33.369390 -118.377061 98 8842ft 244kts
11-Dec-20 20:34 33.358881 -118.296006 99 8843ft 246kts
11-Dec-20 20:35 33.348233 -118.214894 99 8843ft 246kts
11-Dec-20 20:36 33.337526 -118.133750 99 8835ft 247kts
11-Dec-20 20:37 33.326775 -118.052693 99 8835ft 247kts
11-Dec-20 20:38 33.315946 -117.971468 99 8835ft 247kts
11-Dec-20 20:39 33.305044 -117.890118 99 8835ft 247kts
11-Dec-20 20:40 33.294109 -117.809000 99 8835ft 247kts
11-Dec-20 20:41 33.282821 -117.727916 100 8835ft 247kts
11-Dec-20 20:42 33.270633 -117.647015 100 8835ft 247kts
11-Dec-20 20:43 33.252766 -117.568717 132 8839ft 246kts
11-Dec-20 20:44 33.205817 -117.508726 133 8835ft 247kts
11-Dec-20 20:45 33.158508 -117.449411 133 8835ft 247kts
11-Dec-20 20:46 33.102493 -117.403008 154 8835ft 247kts
11-Dec-20 20:47 33.041739 -117.369190 154 7557ft 234kts
11-Dec-20 20:48 32.983692 -117.336953 155 6849ft 232kts
11-Dec-20 20:49 32.924158 -117.303948 155 6846ft 239kts
11-Dec-20 20:50 32.863412 -117.270317 155 6845ft 241kts
11-Dec-20 20:51 32.802035 -117.236388 155 6845ft 242kts
11-Dec-20 20:52 32.750015 -117.196873 111 6784ft 183kts
11-Dec-20 20:53 32.740205 -117.138330 100 6831ft 181kts
11-Dec-20 20:54 32.736213 -117.081966 90 6006ft 163kts
11-Dec-20 20:55 32.735654 -117.030388 90 4843ft 157kts
11-Dec-20 20:56 32.735069 -116.974730 90 4820ft 167kts
11-Dec-20 20:57 32.734510 -116.920639 90 4823ft 161kts
11-Dec-20 20:58 32.733975 -116.867714 90 4830ft 160kts
11-Dec-20 20:59 32.702437 -116.850292 201 4841ft 169kts
11-Dec-20 21:00 32.680873 -116.901920 250 3966ft 188kts
11-Dec-20 21:01 32.674187 -116.946177 286 3453ft 118kts
11-Dec-20 21:02 32.683592 -116.984702 286 3338ft 129kts
11-Dec-20 21:03 32.693295 -117.024410 285 2474ft 103kts
11-Dec-20 21:04 32.702301 -117.061223 286 2096ft 132kts
11-Dec-20 21:05 32.711666 -117.099663 286 1823ft 113kts
11-Dec-20 21:06 32.721587 -117.138689 285 1044ft 140kts
11-Dec-20 21:07 32.730527 -117.177319 287 102ft 110kts
11-Dec-20 21:08 32.734260 -117.190917 357 22ft 10kts
11-Dec-20 21:09 32.734805 -117.190598 57 22ft 0kts
11-Dec-20 21:10 32.735338 -117.189286 189 22ft 3kts
11-Dec-20 21:11 32.735185 -117.189344 198 22ft 0kts
11-Dec-20 21:12 32.735185 -117.189344 198 22ft 0kts
11-Dec-20 21:13 32.735185 -117.189344 198 22ft 0kts
11-Dec-20 21:14 32.735185 -117.189344 198 22ft 0kts

Navigation Log

Ident Type
Flight plan parsing failed, navigation log unavailable